sensor_id;sensor_type;location;lat;lon;timestamp;P1;durP1;ratioP1;P2;durP2;ratioP2
39772;SDS011;25451;51.960;6.250;2024-01-10T00:02:11;2.93;;;1.40;;
39772;SDS011;25451;51.960;6.250;2024-01-10T00:04:36;2.33;;;1.30;;
39772;SDS011;25451;51.960;6.250;2024-01-10T00:07:01;3.00;;;1.33;;
39772;SDS011;25451;51.960;6.250;2024-01-10T00:09:27;3.20;;;1.60;;
39772;SDS011;25451;51.960;6.250;2024-01-10T00:11:52;5.17;;;2.00;;
39772;SDS011;25451;51.960;6.250;2024-01-10T00:14:17;4.73;;;1.53;;
39772;SDS011;25451;51.960;6.250;2024-01-10T00:16:42;3.70;;;1.83;;
39772;SDS011;25451;51.960;6.250;2024-01-10T00:19:09;3.17;;;1.33;;
39772;SDS011;25451;51.960;6.250;2024-01-10T00:21:34;4.13;;;2.00;;
39772;SDS011;25451;51.960;6.250;2024-01-10T00:24:01;3.22;;;1.70;;
39772;SDS011;25451;51.960;6.250;2024-01-10T00:26:26;4.80;;;1.93;;
39772;SDS011;25451;51.960;6.250;2024-01-10T00:28:51;4.17;;;1.73;;
39772;SDS011;25451;51.960;6.250;2024-01-10T00:31:16;6.47;;;1.80;;
39772;SDS011;25451;51.960;6.250;2024-01-10T00:33:42;3.00;;;1.40;;
39772;SDS011;25451;51.960;6.250;2024-01-10T00:36:07;3.53;;;1.90;;
39772;SDS011;25451;51.960;6.250;2024-01-10T00:38:33;3.67;;;1.70;;
39772;SDS011;25451;51.960;6.250;2024-01-10T00:40:58;5.90;;;2.70;;
39772;SDS011;25451;51.960;6.250;2024-01-10T00:43:23;3.27;;;1.60;;
39772;SDS011;25451;51.960;6.250;2024-01-10T00:45:49;3.17;;;1.63;;
39772;SDS011;25451;51.960;6.250;2024-01-10T00:48:14;5.83;;;1.57;;
39772;SDS011;25451;51.960;6.250;2024-01-10T00:50:40;4.10;;;2.08;;
39772;SDS011;25451;51.960;6.250;2024-01-10T00:53:06;4.57;;;1.40;;
39772;SDS011;25451;51.960;6.250;2024-01-10T00:55:31;4.20;;;1.90;;
39772;SDS011;25451;51.960;6.250;2024-01-10T00:57:57;3.77;;;1.53;;
39772;SDS011;25451;51.960;6.250;2024-01-10T01:00:22;3.27;;;1.60;;
39772;SDS011;25451;51.960;6.250;2024-01-10T01:02:47;4.10;;;1.90;;
39772;SDS011;25451;51.960;6.250;2024-01-10T01:05:13;3.27;;;1.50;;
39772;SDS011;25451;51.960;6.250;2024-01-10T01:07:38;3.05;;;1.42;;
39772;SDS011;25451;51.960;6.250;2024-01-10T01:10:04;4.50;;;1.90;;
39772;SDS011;25451;51.960;6.250;2024-01-10T01:12:30;5.07;;;1.63;;
39772;SDS011;25451;51.960;6.250;2024-01-10T01:14:55;3.53;;;1.50;;
39772;SDS011;25451;51.960;6.250;2024-01-10T01:17:20;3.13;;;1.50;;
39772;SDS011;25451;51.960;6.250;2024-01-10T01:19:46;4.90;;;1.43;;
39772;SDS011;25451;51.960;6.250;2024-01-10T01:22:11;3.20;;;1.43;;
39772;SDS011;25451;51.960;6.250;2024-01-10T01:24:36;4.30;;;1.73;;
39772;SDS011;25451;51.960;6.250;2024-01-10T01:27:02;2.77;;;1.37;;
39772;SDS011;25451;51.960;6.250;2024-01-10T01:29:28;2.97;;;1.52;;
39772;SDS011;25451;51.960;6.250;2024-01-10T01:31:54;3.13;;;1.57;;
39772;SDS011;25451;51.960;6.250;2024-01-10T01:34:19;3.63;;;1.57;;
39772;SDS011;25451;51.960;6.250;2024-01-10T01:36:44;3.67;;;1.50;;
39772;SDS011;25451;51.960;6.250;2024-01-10T01:39:09;3.50;;;1.60;;
39772;SDS011;25451;51.960;6.250;2024-01-10T01:41:35;3.97;;;1.40;;
39772;SDS011;25451;51.960;6.250;2024-01-10T01:44:00;5.70;;;2.30;;
39772;SDS011;25451;51.960;6.250;2024-01-10T01:46:25;2.17;;;1.33;;
39772;SDS011;25451;51.960;6.250;2024-01-10T01:48:52;3.40;;;1.65;;
39772;SDS011;25451;51.960;6.250;2024-01-10T01:51:17;2.63;;;1.50;;
39772;SDS011;25451;51.960;6.250;2024-01-10T01:53:46;4.20;;;1.90;;
39772;SDS011;25451;51.960;6.250;2024-01-10T01:56:13;3.90;;;1.42;;
39772;SDS011;25451;51.960;6.250;2024-01-10T01:58:39;3.38;;;1.85;;
39772;SDS011;25451;51.960;6.250;2024-01-10T02:01:05;2.83;;;1.35;;
39772;SDS011;25451;51.960;6.250;2024-01-10T02:03:31;5.20;;;1.60;;
39772;SDS011;25451;51.960;6.250;2024-01-10T02:06:00;3.17;;;1.45;;
39772;SDS011;25451;51.960;6.250;2024-01-10T02:08:32;2.90;;;1.40;;
39772;SDS011;25451;51.960;6.250;2024-01-10T02:10:58;3.95;;;1.63;;
39772;SDS011;25451;51.960;6.250;2024-01-10T02:13:24;2.92;;;1.60;;
39772;SDS011;25451;51.960;6.250;2024-01-10T02:15:50;3.83;;;1.60;;
39772;SDS011;25451;51.960;6.250;2024-01-10T02:18:16;4.78;;;1.67;;
39772;SDS011;25451;51.960;6.250;2024-01-10T02:20:44;2.47;;;1.27;;
39772;SDS011;25451;51.960;6.250;2024-01-10T02:23:10;5.93;;;1.60;;
39772;SDS011;25451;51.960;6.250;2024-01-10T02:25:35;3.77;;;1.67;;
39772;SDS011;25451;51.960;6.250;2024-01-10T02:28:01;3.13;;;1.70;;
39772;SDS011;25451;51.960;6.250;2024-01-10T02:30:26;1.40;;;1.03;;
39772;SDS011;25451;51.960;6.250;2024-01-10T02:32:51;3.60;;;1.40;;
39772;SDS011;25451;51.960;6.250;2024-01-10T02:35:17;2.97;;;1.50;;
39772;SDS011;25451;51.960;6.250;2024-01-10T02:37:42;3.40;;;1.53;;
39772;SDS011;25451;51.960;6.250;2024-01-10T02:40:08;4.57;;;1.70;;
39772;SDS011;25451;51.960;6.250;2024-01-10T02:42:34;3.70;;;1.65;;
39772;SDS011;25451;51.960;6.250;2024-01-10T02:45:00;3.43;;;1.67;;
39772;SDS011;25451;51.960;6.250;2024-01-10T02:47:25;9.77;;;1.55;;
39772;SDS011;25451;51.960;6.250;2024-01-10T02:49:50;3.30;;;1.63;;
39772;SDS011;25451;51.960;6.250;2024-01-10T02:52:16;4.43;;;1.60;;
39772;SDS011;25451;51.960;6.250;2024-01-10T02:54:41;3.33;;;1.80;;
39772;SDS011;25451;51.960;6.250;2024-01-10T02:57:06;3.33;;;1.67;;
39772;SDS011;25451;51.960;6.250;2024-01-10T02:59:32;3.27;;;1.40;;
39772;SDS011;25451;51.960;6.250;2024-01-10T03:01:57;4.60;;;1.70;;
39772;SDS011;25451;51.960;6.250;2024-01-10T03:04:22;3.93;;;1.63;;
39772;SDS011;25451;51.960;6.250;2024-01-10T03:06:47;3.93;;;1.73;;
39772;SDS011;25451;51.960;6.250;2024-01-10T03:09:13;3.63;;;1.27;;
39772;SDS011;25451;51.960;6.250;2024-01-10T03:11:38;3.50;;;1.43;;
39772;SDS011;25451;51.960;6.250;2024-01-10T03:14:04;4.03;;;1.67;;
39772;SDS011;25451;51.960;6.250;2024-01-10T03:16:33;3.08;;;1.85;;
39772;SDS011;25451;51.960;6.250;2024-01-10T03:18:58;3.47;;;1.63;;
39772;SDS011;25451;51.960;6.250;2024-01-10T03:21:23;3.20;;;1.63;;
39772;SDS011;25451;51.960;6.250;2024-01-10T03:23:52;5.00;;;1.98;;
39772;SDS011;25451;51.960;6.250;2024-01-10T03:26:20;3.42;;;1.60;;
39772;SDS011;25451;51.960;6.250;2024-01-10T03:28:45;3.80;;;1.90;;
39772;SDS011;25451;51.960;6.250;2024-01-10T03:31:10;3.40;;;1.63;;
39772;SDS011;25451;51.960;6.250;2024-01-10T03:33:36;5.20;;;2.00;;
39772;SDS011;25451;51.960;6.250;2024-01-10T03:36:01;3.37;;;1.77;;
39772;SDS011;25451;51.960;6.250;2024-01-10T03:38:27;3.80;;;1.85;;
39772;SDS011;25451;51.960;6.250;2024-01-10T03:40:53;4.50;;;1.83;;
39772;SDS011;25451;51.960;6.250;2024-01-10T03:43:18;4.20;;;2.00;;
39772;SDS011;25451;51.960;6.250;2024-01-10T03:45:43;5.17;;;2.20;;
39772;SDS011;25451;51.960;6.250;2024-01-10T03:48:09;2.87;;;1.67;;
39772;SDS011;25451;51.960;6.250;2024-01-10T03:50:34;4.17;;;1.90;;
39772;SDS011;25451;51.960;6.250;2024-01-10T03:52:59;2.83;;;1.50;;
39772;SDS011;25451;51.960;6.250;2024-01-10T03:55:25;5.03;;;2.30;;
39772;SDS011;25451;51.960;6.250;2024-01-10T03:57:50;3.43;;;1.80;;
39772;SDS011;25451;51.960;6.250;2024-01-10T04:00:15;4.43;;;2.17;;
39772;SDS011;25451;51.960;6.250;2024-01-10T04:02:41;4.07;;;1.95;;
39772;SDS011;25451;51.960;6.250;2024-01-10T04:05:07;3.23;;;1.60;;
39772;SDS011;25451;51.960;6.250;2024-01-10T04:07:34;6.55;;;2.50;;
39772;SDS011;25451;51.960;6.250;2024-01-10T04:09:59;3.70;;;1.80;;
39772;SDS011;25451;51.960;6.250;2024-01-10T04:12:25;3.00;;;1.67;;
39772;SDS011;25451;51.960;6.250;2024-01-10T04:14:50;3.80;;;1.80;;
39772;SDS011;25451;51.960;6.250;2024-01-10T04:17:15;3.23;;;1.60;;
39772;SDS011;25451;51.960;6.250;2024-01-10T04:19:41;4.37;;;1.87;;
39772;SDS011;25451;51.960;6.250;2024-01-10T04:22:06;5.63;;;2.07;;
39772;SDS011;25451;51.960;6.250;2024-01-10T04:24:31;5.40;;;2.20;;
39772;SDS011;25451;51.960;6.250;2024-01-10T04:26:56;2.33;;;1.43;;
39772;SDS011;25451;51.960;6.250;2024-01-10T04:29:22;2.30;;;1.40;;
39772;SDS011;25451;51.960;6.250;2024-01-10T04:31:47;3.30;;;1.87;;
39772;SDS011;25451;51.960;6.250;2024-01-10T04:34:13;5.28;;;1.92;;
39772;SDS011;25451;51.960;6.250;2024-01-10T04:36:39;3.43;;;1.53;;
39772;SDS011;25451;51.960;6.250;2024-01-10T04:39:04;5.03;;;1.90;;
39772;SDS011;25451;51.960;6.250;2024-01-10T04:41:29;4.13;;;1.97;;
39772;SDS011;25451;51.960;6.250;2024-01-10T04:43:54;3.63;;;1.90;;
39772;SDS011;25451;51.960;6.250;2024-01-10T04:46:20;3.47;;;1.60;;
39772;SDS011;25451;51.960;6.250;2024-01-10T04:48:46;3.72;;;1.90;;
39772;SDS011;25451;51.960;6.250;2024-01-10T04:51:11;3.43;;;1.67;;
39772;SDS011;25451;51.960;6.250;2024-01-10T04:53:37;2.63;;;1.47;;
39772;SDS011;25451;51.960;6.250;2024-01-10T04:56:02;3.30;;;1.40;;
39772;SDS011;25451;51.960;6.250;2024-01-10T04:58:27;3.80;;;1.60;;
39772;SDS011;25451;51.960;6.250;2024-01-10T05:00:54;3.88;;;1.77;;
39772;SDS011;25451;51.960;6.250;2024-01-10T05:03:20;7.10;;;2.07;;
39772;SDS011;25451;51.960;6.250;2024-01-10T05:05:45;6.90;;;2.33;;
39772;SDS011;25451;51.960;6.250;2024-01-10T05:08:10;4.80;;;1.60;;
39772;SDS011;25451;51.960;6.250;2024-01-10T05:10:35;4.60;;;2.20;;
39772;SDS011;25451;51.960;6.250;2024-01-10T05:13:01;2.67;;;1.50;;
39772;SDS011;25451;51.960;6.250;2024-01-10T05:15:26;4.00;;;1.70;;
39772;SDS011;25451;51.960;6.250;2024-01-10T05:17:51;3.07;;;1.67;;
39772;SDS011;25451;51.960;6.250;2024-01-10T05:20:17;4.47;;;1.73;;
39772;SDS011;25451;51.960;6.250;2024-01-10T05:22:42;4.13;;;1.83;;
39772;SDS011;25451;51.960;6.250;2024-01-10T05:25:08;4.07;;;2.15;;
39772;SDS011;25451;51.960;6.250;2024-01-10T05:27:34;4.10;;;2.20;;
39772;SDS011;25451;51.960;6.250;2024-01-10T05:29:59;4.93;;;2.00;;
39772;SDS011;25451;51.960;6.250;2024-01-10T05:32:25;4.37;;;2.00;;
39772;SDS011;25451;51.960;6.250;2024-01-10T05:34:52;3.75;;;1.73;;
39772;SDS011;25451;51.960;6.250;2024-01-10T05:37:18;4.93;;;1.80;;
39772;SDS011;25451;51.960;6.250;2024-01-10T05:39:43;5.10;;;2.17;;
39772;SDS011;25451;51.960;6.250;2024-01-10T05:42:08;3.40;;;1.77;;
39772;SDS011;25451;51.960;6.250;2024-01-10T05:44:33;4.03;;;1.80;;
39772;SDS011;25451;51.960;6.250;2024-01-10T05:46:59;3.43;;;1.70;;
39772;SDS011;25451;51.960;6.250;2024-01-10T05:49:24;4.37;;;1.90;;
39772;SDS011;25451;51.960;6.250;2024-01-10T05:51:50;3.40;;;1.77;;
39772;SDS011;25451;51.960;6.250;2024-01-10T05:54:15;5.10;;;2.10;;
39772;SDS011;25451;51.960;6.250;2024-01-10T05:56:42;4.40;;;1.80;;
39772;SDS011;25451;51.960;6.250;2024-01-10T05:59:08;6.33;;;2.50;;
39772;SDS011;25451;51.960;6.250;2024-01-10T06:01:33;5.70;;;2.27;;
39772;SDS011;25451;51.960;6.250;2024-01-10T06:03:58;7.87;;;2.33;;
39772;SDS011;25451;51.960;6.250;2024-01-10T06:06:24;4.83;;;2.13;;
39772;SDS011;25451;51.960;6.250;2024-01-10T06:08:49;5.40;;;2.13;;
39772;SDS011;25451;51.960;6.250;2024-01-10T06:11:15;4.38;;;1.92;;
39772;SDS011;25451;51.960;6.250;2024-01-10T06:13:40;5.80;;;2.67;;
39772;SDS011;25451;51.960;6.250;2024-01-10T06:16:06;3.63;;;2.00;;
39772;SDS011;25451;51.960;6.250;2024-01-10T06:18:32;4.25;;;2.50;;
39772;SDS011;25451;51.960;6.250;2024-01-10T06:20:57;8.17;;;2.50;;
39772;SDS011;25451;51.960;6.250;2024-01-10T06:23:23;5.93;;;1.77;;
39772;SDS011;25451;51.960;6.250;2024-01-10T06:25:48;6.10;;;2.27;;
39772;SDS011;25451;51.960;6.250;2024-01-10T06:28:13;4.37;;;2.17;;
39772;SDS011;25451;51.960;6.250;2024-01-10T06:30:39;4.47;;;2.23;;
39772;SDS011;25451;51.960;6.250;2024-01-10T06:33:04;4.57;;;2.30;;
39772;SDS011;25451;51.960;6.250;2024-01-10T06:35:31;5.43;;;2.40;;
39772;SDS011;25451;51.960;6.250;2024-01-10T06:37:57;4.50;;;2.20;;
39772;SDS011;25451;51.960;6.250;2024-01-10T06:40:22;6.13;;;2.53;;
39772;SDS011;25451;51.960;6.250;2024-01-10T06:42:47;5.67;;;2.37;;
39772;SDS011;25451;51.960;6.250;2024-01-10T06:45:13;4.97;;;1.87;;
39772;SDS011;25451;51.960;6.250;2024-01-10T06:47:39;7.35;;;2.92;;
39772;SDS011;25451;51.960;6.250;2024-01-10T06:50:05;7.20;;;2.77;;
39772;SDS011;25451;51.960;6.250;2024-01-10T06:52:31;6.90;;;3.43;;
39772;SDS011;25451;51.960;6.250;2024-01-10T06:54:56;4.68;;;2.28;;
39772;SDS011;25451;51.960;6.250;2024-01-10T06:57:22;6.87;;;3.30;;
39772;SDS011;25451;51.960;6.250;2024-01-10T06:59:47;5.63;;;2.38;;
39772;SDS011;25451;51.960;6.250;2024-01-10T07:02:13;6.43;;;2.67;;
39772;SDS011;25451;51.960;6.250;2024-01-10T07:04:38;6.23;;;2.60;;
39772;SDS011;25451;51.960;6.250;2024-01-10T07:07:04;4.90;;;2.57;;
39772;SDS011;25451;51.960;6.250;2024-01-10T07:09:29;6.97;;;2.43;;
39772;SDS011;25451;51.960;6.250;2024-01-10T07:11:54;5.83;;;3.00;;
39772;SDS011;25451;51.960;6.250;2024-01-10T07:14:19;8.00;;;3.00;;
39772;SDS011;25451;51.960;6.250;2024-01-10T07:16:45;5.93;;;2.70;;
39772;SDS011;25451;51.960;6.250;2024-01-10T07:19:13;8.13;;;2.65;;
39772;SDS011;25451;51.960;6.250;2024-01-10T07:21:42;6.38;;;2.78;;
39772;SDS011;25451;51.960;6.250;2024-01-10T07:24:07;6.03;;;2.57;;
39772;SDS011;25451;51.960;6.250;2024-01-10T07:26:37;7.38;;;3.10;;
39772;SDS011;25451;51.960;6.250;2024-01-10T07:29:02;6.90;;;3.28;;
39772;SDS011;25451;51.960;6.250;2024-01-10T07:31:28;7.20;;;3.50;;
39772;SDS011;25451;51.960;6.250;2024-01-10T07:33:55;6.40;;;3.13;;
39772;SDS011;25451;51.960;6.250;2024-01-10T07:36:23;8.30;;;3.38;;
39772;SDS011;25451;51.960;6.250;2024-01-10T07:38:51;7.30;;;3.35;;
39772;SDS011;25451;51.960;6.250;2024-01-10T07:41:17;7.10;;;3.10;;
39772;SDS011;25451;51.960;6.250;2024-01-10T07:43:42;7.03;;;2.87;;
39772;SDS011;25451;51.960;6.250;2024-01-10T07:46:08;6.85;;;3.20;;
39772;SDS011;25451;51.960;6.250;2024-01-10T07:48:34;6.93;;;2.83;;
39772;SDS011;25451;51.960;6.250;2024-01-10T07:51:00;6.38;;;3.20;;
39772;SDS011;25451;51.960;6.250;2024-01-10T07:53:25;9.53;;;3.50;;
39772;SDS011;25451;51.960;6.250;2024-01-10T07:55:51;7.33;;;3.23;;
39772;SDS011;25451;51.960;6.250;2024-01-10T07:58:17;8.25;;;3.22;;
39772;SDS011;25451;51.960;6.250;2024-01-10T08:00:42;7.00;;;3.20;;
39772;SDS011;25451;51.960;6.250;2024-01-10T08:03:08;6.38;;;2.60;;
39772;SDS011;25451;51.960;6.250;2024-01-10T08:05:35;8.27;;;3.78;;
39772;SDS011;25451;51.960;6.250;2024-01-10T08:08:00;7.23;;;3.00;;
39772;SDS011;25451;51.960;6.250;2024-01-10T08:10:25;10.03;;;3.67;;
39772;SDS011;25451;51.960;6.250;2024-01-10T08:12:52;9.70;;;3.97;;
39772;SDS011;25451;51.960;6.250;2024-01-10T08:15:17;8.10;;;3.50;;
39772;SDS011;25451;51.960;6.250;2024-01-10T08:17:44;9.27;;;3.50;;
39772;SDS011;25451;51.960;6.250;2024-01-10T08:20:10;6.87;;;3.83;;
39772;SDS011;25451;51.960;6.250;2024-01-10T08:22:35;11.03;;;4.20;;
39772;SDS011;25451;51.960;6.250;2024-01-10T08:25:01;11.48;;;3.92;;
39772;SDS011;25451;51.960;6.250;2024-01-10T08:27:27;10.00;;;3.63;;
39772;SDS011;25451;51.960;6.250;2024-01-10T08:29:53;9.40;;;4.00;;
39772;SDS011;25451;51.960;6.250;2024-01-10T08:32:18;8.40;;;3.40;;
39772;SDS011;25451;51.960;6.250;2024-01-10T08:34:46;10.63;;;4.03;;
39772;SDS011;25451;51.960;6.250;2024-01-10T08:37:12;11.15;;;4.03;;
39772;SDS011;25451;51.960;6.250;2024-01-10T08:39:38;7.78;;;3.67;;
39772;SDS011;25451;51.960;6.250;2024-01-10T08:42:03;6.80;;;3.22;;
39772;SDS011;25451;51.960;6.250;2024-01-10T08:44:28;7.13;;;3.00;;
39772;SDS011;25451;51.960;6.250;2024-01-10T08:46:54;12.73;;;4.20;;
39772;SDS011;25451;51.960;6.250;2024-01-10T08:49:19;9.27;;;3.43;;
39772;SDS011;25451;51.960;6.250;2024-01-10T08:51:45;9.10;;;4.07;;
39772;SDS011;25451;51.960;6.250;2024-01-10T08:54:11;6.50;;;3.55;;
39772;SDS011;25451;51.960;6.250;2024-01-10T08:56:44;18.90;;;4.60;;
39772;SDS011;25451;51.960;6.250;2024-01-10T08:59:12;8.23;;;3.90;;
39772;SDS011;25451;51.960;6.250;2024-01-10T09:01:38;9.18;;;4.15;;
39772;SDS011;25451;51.960;6.250;2024-01-10T09:04:06;11.10;;;3.60;;
39772;SDS011;25451;51.960;6.250;2024-01-10T09:06:32;9.43;;;3.80;;
39772;SDS011;25451;51.960;6.250;2024-01-10T09:08:58;11.47;;;4.13;;
39772;SDS011;25451;51.960;6.250;2024-01-10T09:11:24;9.48;;;4.13;;
39772;SDS011;25451;51.960;6.250;2024-01-10T09:13:49;8.93;;;3.83;;
39772;SDS011;25451;51.960;6.250;2024-01-10T09:16:16;8.10;;;3.63;;
39772;SDS011;25451;51.960;6.250;2024-01-10T09:18:43;9.73;;;4.18;;
39772;SDS011;25451;51.960;6.250;2024-01-10T09:21:09;7.67;;;4.17;;
39772;SDS011;25451;51.960;6.250;2024-01-10T09:23:34;8.73;;;3.60;;
39772;SDS011;25451;51.960;6.250;2024-01-10T09:25:59;11.00;;;4.67;;
39772;SDS011;25451;51.960;6.250;2024-01-10T09:28:25;9.70;;;4.43;;
39772;SDS011;25451;51.960;6.250;2024-01-10T09:30:51;9.38;;;4.38;;
39772;SDS011;25451;51.960;6.250;2024-01-10T09:33:16;10.65;;;4.50;;
39772;SDS011;25451;51.960;6.250;2024-01-10T09:35:42;9.60;;;4.30;;
39772;SDS011;25451;51.960;6.250;2024-01-10T09:38:07;7.53;;;3.57;;
39772;SDS011;25451;51.960;6.250;2024-01-10T09:40:33;9.17;;;4.03;;
39772;SDS011;25451;51.960;6.250;2024-01-10T09:42:58;11.27;;;4.37;;
39772;SDS011;25451;51.960;6.250;2024-01-10T09:45:23;10.33;;;4.17;;
39772;SDS011;25451;51.960;6.250;2024-01-10T09:47:55;13.02;;;4.90;;
39772;SDS011;25451;51.960;6.250;2024-01-10T09:50:22;9.00;;;4.00;;
39772;SDS011;25451;51.960;6.250;2024-01-10T09:52:51;9.13;;;4.30;;
39772;SDS011;25451;51.960;6.250;2024-01-10T09:55:21;9.75;;;4.28;;
39772;SDS011;25451;51.960;6.250;2024-01-10T09:57:48;9.93;;;4.33;;
39772;SDS011;25451;51.960;6.250;2024-01-10T10:00:14;10.65;;;3.95;;
39772;SDS011;25451;51.960;6.250;2024-01-10T10:02:41;10.70;;;4.20;;
39772;SDS011;25451;51.960;6.250;2024-01-10T10:05:16;8.82;;;3.85;;
39772;SDS011;25451;51.960;6.250;2024-01-10T10:07:51;10.93;;;4.73;;
39772;SDS011;25451;51.960;6.250;2024-01-10T10:10:20;8.90;;;4.28;;
39772;SDS011;25451;51.960;6.250;2024-01-10T10:12:49;8.93;;;4.60;;
39772;SDS011;25451;51.960;6.250;2024-01-10T10:15:19;9.70;;;4.45;;
39772;SDS011;25451;51.960;6.250;2024-01-10T10:17:47;11.43;;;4.65;;
39772;SDS011;25451;51.960;6.250;2024-01-10T10:20:20;9.88;;;4.03;;
39772;SDS011;25451;51.960;6.250;2024-01-10T10:22:57;16.65;;;4.57;;
39772;SDS011;25451;51.960;6.250;2024-01-10T10:25:26;11.27;;;4.40;;
39772;SDS011;25451;51.960;6.250;2024-01-10T10:27:58;8.90;;;4.28;;
39772;SDS011;25451;51.960;6.250;2024-01-10T10:30:25;10.02;;;4.68;;
39772;SDS011;25451;51.960;6.250;2024-01-10T10:32:51;13.07;;;5.30;;
39772;SDS011;25451;51.960;6.250;2024-01-10T10:35:18;9.13;;;4.10;;
39772;SDS011;25451;51.960;6.250;2024-01-10T10:37:44;10.85;;;4.68;;
39772;SDS011;25451;51.960;6.250;2024-01-10T10:40:09;12.20;;;4.70;;
39772;SDS011;25451;51.960;6.250;2024-01-10T10:42:36;10.18;;;4.85;;
39772;SDS011;25451;51.960;6.250;2024-01-10T10:45:08;11.97;;;4.80;;
39772;SDS011;25451;51.960;6.250;2024-01-10T10:47:38;11.00;;;4.35;;
39772;SDS011;25451;51.960;6.250;2024-01-10T10:50:08;10.27;;;4.32;;
39772;SDS011;25451;51.960;6.250;2024-01-10T10:52:45;10.35;;;4.68;;
39772;SDS011;25451;51.960;6.250;2024-01-10T10:55:13;12.27;;;5.05;;
39772;SDS011;25451;51.960;6.250;2024-01-10T10:57:41;12.23;;;4.53;;
39772;SDS011;25451;51.960;6.250;2024-01-10T11:00:09;14.18;;;5.00;;
39772;SDS011;25451;51.960;6.250;2024-01-10T11:02:36;10.88;;;4.25;;
39772;SDS011;25451;51.960;6.250;2024-01-10T11:05:02;10.95;;;4.70;;
39772;SDS011;25451;51.960;6.250;2024-01-10T11:07:30;10.93;;;4.40;;
39772;SDS011;25451;51.960;6.250;2024-01-10T11:09:55;9.52;;;4.18;;
39772;SDS011;25451;51.960;6.250;2024-01-10T11:23:59;9.90;;;4.18;;
39772;SDS011;25451;51.960;6.250;2024-01-10T11:26:26;11.02;;;4.65;;
39772;SDS011;25451;51.960;6.250;2024-01-10T11:28:51;9.77;;;4.10;;
39772;SDS011;25451;51.960;6.250;2024-01-10T11:31:26;12.43;;;4.80;;
39772;SDS011;25451;51.960;6.250;2024-01-10T11:33:55;9.88;;;4.15;;
39772;SDS011;25451;51.960;6.250;2024-01-10T11:36:21;11.45;;;4.85;;
39772;SDS011;25451;51.960;6.250;2024-01-10T11:41:31;15.05;;;5.00;;
39772;SDS011;25451;51.960;6.250;2024-01-10T11:46:37;7.68;;;3.70;;
39772;SDS011;25451;51.960;6.250;2024-01-10T11:49:03;10.15;;;4.75;;
39772;SDS011;25451;51.960;6.250;2024-01-10T11:51:29;12.30;;;5.33;;
39772;SDS011;25451;51.960;6.250;2024-01-10T11:53:54;11.90;;;4.80;;
39772;SDS011;25451;51.960;6.250;2024-01-10T11:56:22;11.60;;;4.73;;
39772;SDS011;25451;51.960;6.250;2024-01-10T12:01:29;11.90;;;4.88;;
39772;SDS011;25451;51.960;6.250;2024-01-10T12:03:55;9.63;;;4.07;;
39772;SDS011;25451;51.960;6.250;2024-01-10T12:06:21;11.15;;;4.50;;
39772;SDS011;25451;51.960;6.250;2024-01-10T12:08:47;10.18;;;4.97;;
39772;SDS011;25451;51.960;6.250;2024-01-10T12:11:13;12.27;;;4.40;;
39772;SDS011;25451;51.960;6.250;2024-01-10T12:13:38;9.13;;;4.18;;
39772;SDS011;25451;51.960;6.250;2024-01-10T12:16:04;9.80;;;4.07;;
39772;SDS011;25451;51.960;6.250;2024-01-10T12:18:30;9.33;;;4.23;;
39772;SDS011;25451;51.960;6.250;2024-01-10T12:20:55;10.90;;;5.20;;
39772;SDS011;25451;51.960;6.250;2024-01-10T12:23:20;10.63;;;4.07;;
39772;SDS011;25451;51.960;6.250;2024-01-10T12:25:48;13.73;;;5.13;;
39772;SDS011;25451;51.960;6.250;2024-01-10T12:28:16;9.73;;;4.60;;
39772;SDS011;25451;51.960;6.250;2024-01-10T12:30:42;11.70;;;5.20;;
39772;SDS011;25451;51.960;6.250;2024-01-10T12:33:08;9.63;;;4.60;;
39772;SDS011;25451;51.960;6.250;2024-01-10T12:35:34;11.13;;;4.53;;
39772;SDS011;25451;51.960;6.250;2024-01-10T12:37:59;12.27;;;4.78;;
39772;SDS011;25451;51.960;6.250;2024-01-10T12:40:24;9.88;;;4.40;;
39772;SDS011;25451;51.960;6.250;2024-01-10T12:43:01;10.43;;;3.80;;
39772;SDS011;25451;51.960;6.250;2024-01-10T12:45:26;14.07;;;4.88;;
39772;SDS011;25451;51.960;6.250;2024-01-10T12:47:52;12.90;;;4.77;;
39772;SDS011;25451;51.960;6.250;2024-01-10T12:50:19;9.88;;;3.90;;
39772;SDS011;25451;51.960;6.250;2024-01-10T12:52:44;11.40;;;4.20;;
39772;SDS011;25451;51.960;6.250;2024-01-10T12:55:10;9.73;;;4.22;;
39772;SDS011;25451;51.960;6.250;2024-01-10T12:57:35;12.15;;;4.65;;
39772;SDS011;25451;51.960;6.250;2024-01-10T13:00:01;10.00;;;4.53;;
39772;SDS011;25451;51.960;6.250;2024-01-10T13:02:31;9.40;;;3.93;;
39772;SDS011;25451;51.960;6.250;2024-01-10T13:04:59;8.35;;;4.20;;
39772;SDS011;25451;51.960;6.250;2024-01-10T13:07:25;11.52;;;4.50;;
39772;SDS011;25451;51.960;6.250;2024-01-10T13:09:52;13.80;;;5.07;;
39772;SDS011;25451;51.960;6.250;2024-01-10T13:12:18;11.65;;;4.82;;
39772;SDS011;25451;51.960;6.250;2024-01-10T13:14:45;10.25;;;4.45;;
39772;SDS011;25451;51.960;6.250;2024-01-10T13:17:10;8.90;;;4.07;;
39772;SDS011;25451;51.960;6.250;2024-01-10T13:19:36;11.50;;;4.70;;
39772;SDS011;25451;51.960;6.250;2024-01-10T13:22:01;11.93;;;4.65;;
39772;SDS011;25451;51.960;6.250;2024-01-10T13:24:28;10.60;;;4.45;;
39772;SDS011;25451;51.960;6.250;2024-01-10T13:26:54;12.87;;;4.30;;
39772;SDS011;25451;51.960;6.250;2024-01-10T13:29:20;10.73;;;4.22;;
39772;SDS011;25451;51.960;6.250;2024-01-10T13:31:45;11.17;;;4.77;;
39772;SDS011;25451;51.960;6.250;2024-01-10T13:34:14;9.02;;;4.13;;
39772;SDS011;25451;51.960;6.250;2024-01-10T13:36:39;9.23;;;4.33;;
39772;SDS011;25451;51.960;6.250;2024-01-10T13:39:04;11.10;;;4.73;;
39772;SDS011;25451;51.960;6.250;2024-01-10T13:41:30;10.57;;;4.40;;
39772;SDS011;25451;51.960;6.250;2024-01-10T13:43:55;10.43;;;4.63;;
39772;SDS011;25451;51.960;6.250;2024-01-10T13:46:21;12.87;;;4.60;;
39772;SDS011;25451;51.960;6.250;2024-01-10T13:48:46;10.60;;;4.47;;
39772;SDS011;25451;51.960;6.250;2024-01-10T13:51:11;11.87;;;4.70;;
39772;SDS011;25451;51.960;6.250;2024-01-10T13:53:37;12.73;;;4.83;;
39772;SDS011;25451;51.960;6.250;2024-01-10T13:56:02;10.37;;;4.30;;
39772;SDS011;25451;51.960;6.250;2024-01-10T13:58:28;10.37;;;4.40;;
39772;SDS011;25451;51.960;6.250;2024-01-10T14:00:53;10.07;;;4.30;;
39772;SDS011;25451;51.960;6.250;2024-01-10T14:03:19;10.40;;;3.83;;
39772;SDS011;25451;51.960;6.250;2024-01-10T14:05:44;11.73;;;4.67;;
39772;SDS011;25451;51.960;6.250;2024-01-10T14:08:10;10.83;;;4.63;;
39772;SDS011;25451;51.960;6.250;2024-01-10T14:10:35;10.70;;;4.50;;
39772;SDS011;25451;51.960;6.250;2024-01-10T14:13:01;9.17;;;4.27;;
39772;SDS011;25451;51.960;6.250;2024-01-10T14:15:26;10.33;;;4.23;;
39772;SDS011;25451;51.960;6.250;2024-01-10T14:17:52;11.73;;;4.78;;
39772;SDS011;25451;51.960;6.250;2024-01-10T14:20:18;12.45;;;5.30;;
39772;SDS011;25451;51.960;6.250;2024-01-10T14:22:46;10.53;;;4.40;;
39772;SDS011;25451;51.960;6.250;2024-01-10T14:25:11;10.70;;;4.75;;
39772;SDS011;25451;51.960;6.250;2024-01-10T14:27:37;16.90;;;4.20;;
39772;SDS011;25451;51.960;6.250;2024-01-10T14:30:04;8.65;;;3.88;;
39772;SDS011;25451;51.960;6.250;2024-01-10T14:32:30;10.23;;;4.40;;
39772;SDS011;25451;51.960;6.250;2024-01-10T14:34:58;10.23;;;4.65;;
39772;SDS011;25451;51.960;6.250;2024-01-10T14:37:24;11.63;;;4.57;;
39772;SDS011;25451;51.960;6.250;2024-01-10T14:39:49;9.35;;;4.70;;
39772;SDS011;25451;51.960;6.250;2024-01-10T14:42:16;12.57;;;4.32;;
39772;SDS011;25451;51.960;6.250;2024-01-10T14:44:42;12.20;;;4.72;;
39772;SDS011;25451;51.960;6.250;2024-01-10T14:47:08;9.77;;;4.53;;
39772;SDS011;25451;51.960;6.250;2024-01-10T14:49:33;11.73;;;5.10;;
39772;SDS011;25451;51.960;6.250;2024-01-10T14:51:59;13.47;;;4.60;;
39772;SDS011;25451;51.960;6.250;2024-01-10T14:54:24;11.63;;;4.33;;
39772;SDS011;25451;51.960;6.250;2024-01-10T14:56:49;9.97;;;4.43;;